Time;durP1;ratioP1;P1;durP2;ratioP2;P2;SDS_P1;SDS_P2;PMS_P1;PMS_P2;Temp;Humidity;BMP_temperature;BMP_pressure;BME280_temperature;BME280_humidity;BME280_pressure;Samples;Min_cycle;Max_cycle;Signal;HPM_P1;HPM_P2
2022/09/22 04:15:39;;;;;;;3.20;1.77;;;;;;;6.27;100.00;100895.94;5868990;23;20117;-62
2022/09/22 04:18:05;;;;;;;4.07;2.35;;;;;;;6.30;100.00;100889.53;4972952;28;20035;-62
2022/09/22 04:20:30;;;;;;;3.28;1.75;;;;;;;6.22;100.00;100896.31;4972781;28;20489;-61
2022/09/22 04:22:56;;;;;;;4.28;1.60;;;;;;;6.11;100.00;100893.72;4973166;28;20205;-61
2022/09/22 04:25:22;;;;;;;2.83;1.90;;;;;;;6.12;100.00;100884.00;4972729;28;20034;-60
2022/09/22 04:27:48;;;;;;;2.53;1.52;;;;;;;6.12;100.00;100887.47;4972550;28;20041;-61
2022/09/22 04:30:13;;;;;;;2.65;2.00;;;;;;;6.08;100.00;100886.06;4972943;28;20066;-60
2022/09/22 04:32:39;;;;;;;2.47;1.83;;;;;;;6.07;100.00;100889.69;4972720;28;20497;-60
2022/09/22 04:35:05;;;;;;;2.35;1.80;;;;;;;5.92;100.00;100886.50;4972554;28;20382;-59
2022/09/22 04:37:31;;;;;;;2.40;1.55;;;;;;;6.06;100.00;100887.16;4972808;28;20497;-59
2022/09/22 04:39:56;;;;;;;2.47;2.00;;;;;;;6.04;100.00;100895.22;4972849;28;20046;-62
2022/09/22 04:42:22;;;;;;;2.50;1.52;;;;;;;5.95;100.00;100885.41;4972349;28;20031;-61
2022/09/22 04:44:47;;;;;;;7.32;2.42;;;;;;;6.02;100.00;100888.38;4972449;28;20046;-61
2022/09/22 04:47:12;;;;;;;2.00;1.63;;;;;;;5.98;100.00;100882.50;4972658;28;20470;-61
2022/09/22 04:49:38;;;;;;;2.90;1.42;;;;;;;5.89;100.00;100885.91;4972480;28;20374;-61
2022/09/22 04:52:03;;;;;;;2.45;1.67;;;;;;;5.88;100.00;100886.88;4972298;28;20038;-61
2022/09/22 04:54:29;;;;;;;2.17;1.65;;;;;;;5.85;100.00;100885.28;4972584;28;20042;-61
2022/09/22 04:56:55;;;;;;;3.00;1.60;;;;;;;5.86;100.00;100886.13;4972305;28;20408;-61
2022/09/22 04:59:20;;;;;;;1.67;1.38;;;;;;;5.84;100.00;100888.06;4972435;28;20117;-62
2022/09/22 05:01:46;;;;;;;2.72;1.48;;;;;;;5.86;100.00;100888.78;4972112;28;20035;-59
2022/09/22 05:04:11;;;;;;;2.17;1.98;;;;;;;5.79;100.00;100883.16;4972373;28;20514;-61
2022/09/22 05:06:37;;;;;;;2.28;1.77;;;;;;;5.81;100.00;100889.19;4972283;28;20129;-60
2022/09/22 05:09:03;;;;;;;3.38;1.60;;;;;;;5.76;100.00;100891.34;4972392;28;20066;-61
2022/09/22 05:11:29;;;;;;;2.53;1.52;;;;;;;5.80;100.00;100891.94;4972047;28;20050;-61
2022/09/22 05:13:55;;;;;;;2.33;1.42;;;;;;;5.82;100.00;100897.94;4972263;28;20055;-61
2022/09/22 05:16:22;;;;;;;2.63;1.52;;;;;;;5.82;100.00;100896.13;4972450;28;20490;-61
2022/09/22 05:18:49;;;;;;;2.00;1.70;;;;;;;5.85;100.00;100895.88;4974525;28;20042;-61
2022/09/22 05:21:20;;;;;;;1.63;1.45;;;;;;;5.75;100.00;100900.25;4975646;28;20055;-60
2022/09/22 05:23:45;;;;;;;4.35;2.08;;;;;;;5.81;100.00;100898.91;4975809;28;20035;-61
2022/09/22 05:26:11;;;;;;;2.42;1.67;;;;;;;5.87;100.00;100903.72;4975727;28;20050;-60
2022/09/22 05:28:36;;;;;;;2.25;1.58;;;;;;;5.91;100.00;100905.13;4975759;28;20401;-61
2022/09/22 05:31:03;;;;;;;2.80;1.90;;;;;;;5.93;100.00;100909.34;4975413;28;20042;-58
2022/09/22 05:33:28;;;;;;;3.17;2.00;;;;;;;5.90;100.00;100908.72;4975576;28;20054;-60
2022/09/22 05:35:54;;;;;;;2.90;2.13;;;;;;;5.86;100.00;100915.22;4975421;28;20046;-60
2022/09/22 05:38:19;;;;;;;2.53;1.70;;;;;;;5.88;100.00;100916.78;4975649;28;20063;-61
2022/09/22 05:40:48;;;;;;;1.70;1.13;;;;;;;5.92;100.00;100917.38;4975171;28;20498;-58
2022/09/22 05:43:13;;;;;;;3.88;1.90;;;;;;;5.89;100.00;100907.06;4975568;28;20122;-57
2022/09/22 05:45:39;;;;;;;4.15;1.88;;;;;;;5.90;100.00;100914.84;4975679;28;20429;-61
2022/09/22 05:48:04;;;;;;;2.75;1.92;;;;;;;5.99;100.00;100918.56;4975376;28;20039;-61
2022/09/22 05:50:29;;;;;;;3.28;2.13;;;;;;;6.03;100.00;100920.00;4975000;28;20415;-61
2022/09/22 05:53:06;;;;;;;2.08;1.88;;;;;;;6.06;100.00;100918.88;4975324;28;20042;-61
2022/09/22 05:55:32;;;;;;;2.67;2.03;;;;;;;6.07;100.00;100920.59;4975292;28;20035;-61
2022/09/22 05:57:58;;;;;;;2.70;1.88;;;;;;;6.07;100.00;100916.13;4975328;28;20081;-61
2022/09/22 06:00:24;;;;;;;4.10;1.98;;;;;;;6.08;100.00;100917.81;4974965;28;20049;-61
2022/09/22 06:02:50;;;;;;;2.05;1.77;;;;;;;6.17;100.00;100913.56;4975069;28;20042;-61
2022/09/22 06:05:15;;;;;;;5.47;2.22;;;;;;;6.22;100.00;100914.00;4975021;28;20077;-60
2022/09/22 06:07:40;;;;;;;7.30;2.20;;;;;;;6.25;100.00;100911.94;4975181;28;20041;-61
2022/09/22 06:10:06;;;;;;;4.20;2.30;;;;;;;6.31;100.00;100917.69;4974912;28;20038;-61
2022/09/22 06:12:32;;;;;;;3.35;1.88;;;;;;;6.36;100.00;100916.31;4974974;28;20085;-61
2022/09/22 06:14:57;;;;;;;1.75;1.38;;;;;;;6.39;100.00;100913.44;4975080;28;20050;-61
2022/09/22 06:17:23;;;;;;;2.63;1.65;;;;;;;6.49;100.00;100913.47;4974652;28;20094;-61
2022/09/22 06:19:49;;;;;;;3.33;1.90;;;;;;;6.50;100.00;100912.50;4974796;28;20035;-62
2022/09/22 06:22:16;;;;;;;2.25;1.67;;;;;;;6.57;100.00;100923.41;4974519;28;20046;-61
2022/09/22 06:24:43;;;;;;;2.42;2.03;;;;;;;6.63;100.00;100923.72;4974787;28;20053;-61
2022/09/22 06:27:08;;;;;;;7.05;2.50;;;;;;;6.68;100.00;100924.16;4974313;28;20035;-61
2022/09/22 06:29:33;;;;;;;2.60;1.90;;;;;;;6.76;100.00;100926.16;4974735;28;20042;-59
2022/09/22 06:32:00;;;;;;;2.50;1.70;;;;;;;6.87;100.00;100922.59;4974281;28;20100;-64
2022/09/22 06:34:26;;;;;;;3.75;1.92;;;;;;;6.95;100.00;100917.47;4974674;28;20038;-60
2022/09/22 06:36:55;;;;;;;2.65;1.70;;;;;;;7.13;100.00;100915.84;4977497;28;20035;-53
2022/09/22 06:39:22;;;;;;;2.08;1.13;;;;;;;7.28;100.00;100914.50;4975951;28;20046;-50
2022/09/22 06:41:48;;;;;;;2.38;1.83;;;;;;;7.41;100.00;100916.06;4973964;28;20477;-49
2022/09/22 06:44:14;;;;;;;2.28;1.38;;;;;;;7.56;100.00;100922.63;4974364;28;20097;-61
2022/09/22 06:46:40;;;;;;;1.55;1.38;;;;;;;7.65;99.28;100926.28;4974145;28;20042;-61
2022/09/22 06:49:06;;;;;;;3.70;1.55;;;;;;;7.77;98.36;100926.03;4971956;28;20485;-60
2022/09/22 06:51:35;;;;;;;4.07;1.65;;;;;;;7.90;97.79;100915.16;4973082;28;20047;-61
2022/09/22 06:54:03;;;;;;;1.60;1.38;;;;;;;7.87;97.45;100905.63;4973781;28;20514;-62
2022/09/22 06:56:33;;;;;;;2.22;1.63;;;;;;;8.09;97.17;100922.25;4973548;28;20034;-60
2022/09/22 06:58:59;;;;;;;2.40;1.60;;;;;;;8.20;95.42;100922.09;4973790;28;20053;-61
2022/09/22 07:01:27;;;;;;;4.53;2.03;;;;;;;8.29;94.02;100915.97;4973034;28;20043;-61
2022/09/22 07:03:53;;;;;;;2.97;2.20;;;;;;;8.39;92.85;100914.13;4973739;28;20039;-61
2022/09/22 07:06:18;;;;;;;1.52;1.27;;;;;;;8.47;92.52;100920.53;4973704;28;20046;-61
2022/09/22 07:08:46;;;;;;;3.05;1.60;;;;;;;8.54;91.74;100913.69;4973450;28;20050;-61
2022/09/22 07:11:16;;;;;;;3.47;1.42;;;;;;;8.63;92.29;100910.19;4972898;28;20561;-59
2022/09/22 07:13:44;;;;;;;8.23;2.00;;;;;;;8.72;91.67;100906.63;4973607;28;20049;-61
2022/09/22 07:16:12;;;;;;;3.00;1.88;;;;;;;8.82;91.54;100914.59;4973222;28;20516;-61
2022/09/22 07:18:39;;;;;;;2.10;1.73;;;;;;;8.93;91.54;100906.41;4973478;28;20057;-61
2022/09/22 07:21:07;;;;;;;2.88;1.90;;;;;;;8.96;89.59;100906.97;4972635;28;20039;-61
2022/09/22 07:23:34;;;;;;;;;;;;;;;9.06;88.60;100900.75;4972535;28;20050;-61
2022/09/22 07:26:08;;;;;;;2.92;2.00;;;;;;;9.12;88.68;100908.16;4973141;28;19968;-61
2022/09/22 07:28:35;;;;;;;2.13;1.50;;;;;;;9.21;88.57;100897.47;4973267;28;20041;-60
2022/09/22 07:31:04;;;;;;;4.05;2.00;;;;;;;9.30;88.53;100895.75;4972438;28;20038;-60
2022/09/22 07:33:33;;;;;;;3.15;2.03;;;;;;;9.36;87.70;100896.97;4973045;28;20045;-61
2022/09/22 07:36:07;;;;;;;5.38;2.13;;;;;;;9.48;87.73;100893.13;4987734;28;20034;-61
2022/09/22 07:38:38;;;;;;;3.28;1.70;;;;;;;9.57;86.80;100896.69;4972917;28;20043;-61
2022/09/22 07:41:05;;;;;;;1.70;1.60;;;;;;;9.61;86.74;100893.56;4971707;28;20042;-61
2022/09/22 07:43:32;;;;;;;2.95;1.98;;;;;;;9.72;87.25;100900.50;4972933;28;20031;-62
2022/09/22 07:45:58;;;;;;;2.58;1.85;;;;;;;9.88;86.61;100889.16;4972705;28;20145;-62
2022/09/22 07:48:37;;;;;;;3.80;2.15;;;;;;;10.09;84.16;100891.50;4972955;28;20424;-62
2022/09/22 07:51:08;;;;;;;3.55;1.80;;;;;;;10.17;84.38;100899.53;4972142;28;20058;-62
2022/09/22 07:53:35;;;;;;;2.72;1.92;;;;;;;10.19;83.77;100893.09;4972814;28;20045;-62
2022/09/22 07:56:05;;;;;;;2.20;1.50;;;;;;;10.30;83.79;100889.34;4972687;28;20159;-62
2022/09/22 07:58:31;;;;;;;4.82;2.08;;;;;;;10.40;82.24;100890.09;4972697;28;20069;-62
2022/09/22 08:00:57;;;;;;;2.20;1.50;;;;;;;10.51;83.58;100891.69;4972113;28;20130;-62
2022/09/22 08:03:22;;;;;;;2.08;1.70;;;;;;;10.64;81.53;100897.41;4972784;28;20121;-62
2022/09/22 08:05:48;;;;;;;2.33;1.70;;;;;;;10.83;82.33;100896.34;4972942;28;20042;-60
2022/09/22 08:08:13;;;;;;;2.20;1.55;;;;;;;10.87;80.82;100892.34;4972854;28;20501;-61
2022/09/22 08:10:39;;;;;;;3.72;1.50;;;;;;;10.95;81.90;100900.38;4972535;28;20034;-60
2022/09/22 08:13:04;;;;;;;2.30;1.70;;;;;;;11.02;81.50;100887.25;4973004;28;20048;-61
2022/09/22 08:15:30;;;;;;;2.58;1.83;;;;;;;11.16;79.90;100891.16;4972391;28;20039;-61
2022/09/22 08:18:01;;;;;;;2.00;1.70;;;;;;;11.23;80.35;100882.34;4972681;28;20090;-62
2022/09/22 08:20:27;;;;;;;2.05;1.40;;;;;;;11.32;80.35;100883.19;4972387;28;20043;-62
2022/09/22 08:22:56;;;;;;;2.67;1.73;;;;;;;11.35;79.50;100874.88;4972632;28;20039;-62
2022/09/22 08:25:24;;;;;;;2.22;1.40;;;;;;;11.48;79.66;100877.91;4972514;28;20027;-62
2022/09/22 08:27:49;;;;;;;1.73;1.38;;;;;;;11.60;78.96;100879.25;4972572;28;20034;-63
2022/09/22 08:30:16;;;;;;;2.13;1.65;;;;;;;11.69;79.43;100880.94;4972217;28;20544;-62
2022/09/22 08:32:41;;;;;;;1.95;1.55;;;;;;;11.83;79.49;100865.31;4972694;28;20410;-62
2022/09/22 08:35:07;;;;;;;1.85;1.30;;;;;;;11.93;76.34;100873.97;4972409;28;20027;-62
2022/09/22 08:37:34;;;;;;;1.67;1.40;;;;;;;12.06;77.01;100871.66;4972523;28;20049;-62
2022/09/22 08:40:00;;;;;;;2.38;1.52;;;;;;;12.14;75.86;100866.31;4972319;28;20092;-62
2022/09/22 08:42:27;;;;;;;1.90;1.55;;;;;;;12.26;76.52;100869.47;4972298;28;20074;-63
2022/09/22 08:45:09;;;;;;;1.98;1.13;;;;;;;12.33;74.26;100867.78;4987340;28;20045;-62
2022/09/22 08:53:42;;;;;;;1.58;1.25;;;;;;;12.73;73.46;100868.69;4976553;28;20038;-61
2022/09/22 08:56:17;;;;;;;1.92;1.38;;;;;;;12.82;71.38;100869.47;4976412;28;20050;-63
2022/09/22 08:59:10;;;;;;;2.25;1.35;;;;;;;12.87;70.27;100867.97;4976511;28;20069;-60
2022/09/22 09:01:41;;;;;;;1.40;1.05;;;;;;;12.99;70.88;100869.25;4976095;28;20046;-61
2022/09/22 09:04:25;;;;;;;2.20;1.17;;;;;;;13.11;69.94;100868.88;4976214;28;20034;-62
2022/09/22 09:07:15;;;;;;;2.45;1.05;;;;;;;13.26;68.94;100864.47;4976111;28;20113;-59
2022/09/22 09:09:50;;;;;;;1.30;0.88;;;;;;;13.40;67.83;100858.38;4976118;28;20039;-60
2022/09/22 09:12:57;;;;;;;1.80;1.25;;;;;;;13.54;68.14;100859.44;4975898;28;20498;-59
2022/09/22 09:15:32;;;;;;;2.15;1.27;;;;;;;13.70;67.50;100864.69;4915623;29;20044;-64
2022/09/22 09:18:01;;;;;;;2.05;1.10;;;;;;;13.87;66.30;100853.84;4916115;29;20135;-58
2022/09/22 09:20:37;;;;;;;1.30;1.20;;;;;;;14.02;64.97;100862.78;4948725;28;20057;-61
2022/09/22 09:23:11;;;;;;;2.17;1.10;;;;;;;14.13;63.48;100852.44;4975767;28;20045;-63
2022/09/22 09:25:40;;;;;;;1.48;1.08;;;;;;;14.24;63.04;100866.41;4975656;28;20050;-61
2022/09/22 09:28:12;;;;;;;1.13;0.90;;;;;;;14.34;62.99;100857.13;4975637;28;20461;-59
2022/09/22 09:30:44;;;;;;;1.90;1.30;;;;;;;14.48;63.03;100852.81;4975446;28;20457;-59
2022/09/22 09:33:17;;;;;;;1.83;1.13;;;;;;;14.67;62.23;100862.16;4975556;28;20125;-59
2022/09/22 09:35:51;;;;;;;1.98;1.00;;;;;;;14.92;61.27;100852.78;4990252;28;20518;-59
2022/09/22 09:38:25;;;;;;;0.68;0.65;;;;;;;15.17;60.71;100857.84;4975443;28;20043;-57
2022/09/22 09:40:57;;;;;;;1.42;0.98;;;;;;;15.25;58.83;100848.84;4975291;28;20070;-60
2022/09/22 09:43:26;;;;;;;0.98;0.82;;;;;;;15.48;58.12;100850.34;4975385;28;20034;-60
2022/09/22 09:46:25;;;;;;;0.98;0.88;;;;;;;15.70;57.34;100848.53;4975359;28;20031;-62
2022/09/22 09:49:13;;;;;;;2.00;1.02;;;;;;;15.90;56.74;100843.31;4972138;28;20046;-59
2022/09/22 09:51:43;;;;;;;0.95;0.88;;;;;;;16.30;56.57;100843.66;4975093;28;20045;-59
2022/09/22 09:54:12;;;;;;;1.50;1.08;;;;;;;16.70;52.72;100844.78;4975342;28;20031;-63
2022/09/22 09:57:01;;;;;;;1.38;0.98;;;;;;;17.16;51.74;100838.75;4975015;28;20463;-57
2022/09/22 10:02:14;;;;;;;1.50;0.50;;;;;;;18.17;49.02;100841.41;4974019;28;20070;-58
2022/09/22 10:04:40;;;;;;;1.52;1.13;;;;;;;18.47;47.93;100839.09;4975111;28;20031;-59
2022/09/22 10:07:14;;;;;;;0.57;0.57;;;;;;;19.16;46.19;100838.44;4975023;28;20141;-57
2022/09/22 10:09:40;;;;;;;2.25;0.77;;;;;;;19.38;45.19;100833.56;4974872;28;20097;-56
2022/09/22 10:12:28;;;;;;;0.68;0.68;;;;;;;19.97;44.02;100826.94;4974509;28;20066;-61
2022/09/22 10:14:57;;;;;;;0.95;0.60;;;;;;;20.29;42.71;100824.97;4974777;28;20057;-58
2022/09/22 10:17:27;;;;;;;1.50;0.90;;;;;;;20.57;41.95;100820.97;4974513;28;20038;-57
2022/09/22 10:19:54;;;;;;;0.45;0.45;;;;;;;20.82;41.87;100812.78;4974484;28;20042;-63
2022/09/22 10:22:27;;;;;;;1.05;0.77;;;;;;;21.21;41.38;100814.16;4974452;28;20046;-58
2022/09/22 10:24:54;;;;;;;0.70;0.55;;;;;;;21.84;40.07;100813.66;4974598;28;20478;-59
2022/09/22 10:27:22;;;;;;;0.73;0.50;;;;;;;21.74;38.87;100807.97;4974700;28;20557;-60
2022/09/22 10:30:12;;;;;;;0.30;0.30;;;;;;;22.30;40.60;100798.47;4974966;28;20510;-61
2022/09/22 10:32:39;;;;;;;1.60;0.55;;;;;;;22.29;37.78;100795.97;4974619;28;20031;-61
2022/09/22 10:35:29;;;;;;;0.93;0.70;;;;;;;22.08;38.13;100794.66;4974457;28;20601;-61
2022/09/22 10:38:19;;;;;;;1.17;0.70;;;;;;;22.65;36.68;100792.16;4967239;28;20070;-61
2022/09/22 10:40:59;;;;;;;1.30;0.50;;;;;;;22.99;35.85;100806.72;4974191;28;20500;-63
2022/09/22 10:43:42;;;;;;;1.60;0.70;;;;;;;23.40;35.05;100794.72;4974366;28;20049;-60
2022/09/22 10:46:33;;;;;;;1.33;0.82;;;;;;;23.11;35.92;100790.38;4974137;28;20090;-63
2022/09/22 10:49:13;;;;;;;0.95;0.65;;;;;;;22.90;36.61;100789.19;4956892;28;20045;-61
2022/09/22 10:51:57;;;;;;;0.98;0.73;;;;;;;22.90;37.12;100787.28;4973976;28;20049;-63
2022/09/22 10:54:29;;;;;;;0.63;0.60;;;;;;;23.69;34.96;100773.78;4974315;28;20413;-62
2022/09/22 10:56:58;;;;;;;0.60;0.60;;;;;;;24.06;34.96;100771.38;4974043;28;20046;-63
2022/09/22 10:59:53;;;;;;;0.77;0.60;;;;;;;24.25;34.51;100776.50;4956705;28;20043;-64
2022/09/22 11:02:49;;;;;;;2.00;0.77;;;;;;;24.58;34.98;100778.34;4973099;28;20035;-64
2022/09/22 11:14:11;;;;;;;0.80;0.80;;;;;;;24.77;33.55;100776.13;4972858;28;20047;-60
2022/09/22 11:16:47;;;;;;;0.73;0.55;;;;;;;25.13;33.22;100770.03;4973481;28;20390;-56
2022/09/22 11:19:24;;;;;;;1.08;0.75;;;;;;;25.10;32.52;100773.28;4973704;28;20042;-59
2022/09/22 11:22:31;;;;;;;1.15;0.80;;;;;;;25.96;30.96;100773.25;4987637;28;20093;-65
2022/09/22 11:25:21;;;;;;;0.50;0.50;;;;;;;25.73;31.64;100772.78;4964965;28;20058;-61
2022/09/22 11:27:58;;;;;;;1.20;0.80;;;;;;;24.71;33.46;100758.91;4973339;28;20066;-60
2022/09/22 11:30:24;;;;;;;1.80;1.00;;;;;;;25.67;32.02;100760.97;4972457;28;20039;-62
2022/09/22 11:33:32;;;;;;;0.77;0.70;;;;;;;25.51;31.27;100756.50;4988158;28;20139;-62
2022/09/22 11:36:10;;;;;;;0.77;0.50;;;;;;;25.06;31.80;100758.53;4973137;28;20130;-60
2022/09/22 11:38:59;;;;;;;0.57;0.50;;;;;;;25.03;33.22;100753.53;4971979;28;20542;-60
2022/09/22 11:41:40;;;;;;;0.57;0.57;;;;;;;25.83;31.37;100756.50;4972285;28;20041;-62
2022/09/22 11:44:18;;;;;;;1.35;0.70;;;;;;;25.64;31.83;100750.59;4973175;28;20043;-62
2022/09/22 11:46:56;;;;;;;1.88;0.90;;;;;;;26.17;30.33;100752.34;4973051;28;20100;-62
2022/09/22 11:49:30;;;;;;;0.50;0.50;;;;;;;25.45;31.56;100744.72;4973083;28;20043;-62
2022/09/22 11:52:10;;;;;;;0.88;0.55;;;;;;;25.90;30.84;100744.28;4972061;28;20038;-63
2022/09/22 11:55:04;;;;;;;0.70;0.63;;;;;;;26.38;29.21;100744.25;4972826;28;20397;-63
2022/09/22 11:57:37;;;;;;;0.60;0.52;;;;;;;26.71;28.95;100732.94;4954832;28;20089;-62
2022/09/22 12:00:16;;;;;;;0.68;0.57;;;;;;;27.14;29.31;100732.81;4972539;28;20034;-63
2022/09/22 12:02:55;;;;;;;0.60;0.47;;;;;;;25.03;30.94;100723.56;4972874;28;20042;-62
2022/09/22 12:05:30;;;;;;;0.50;0.50;;;;;;;26.46;29.26;100725.47;4972600;28;20097;-64
2022/09/22 12:08:01;;;;;;;0.50;0.50;;;;;;;26.33;29.39;100725.09;4972396;28;20106;-64
2022/09/22 12:10:46;;;;;;;1.00;0.45;;;;;;;26.33;30.08;100720.47;4971737;28;20047;-63
2022/09/22 12:13:16;;;;;;;0.50;0.43;;;;;;;26.08;29.49;100721.19;4972622;28;20079;-61
2022/09/22 12:15:57;;;;;;;0.55;0.50;;;;;;;26.60;29.11;100719.50;4972449;28;20176;-48
2022/09/22 12:18:41;;;;;;;1.00;0.93;;;;;;;26.61;29.74;100723.91;4987610;28;20039;-49
2022/09/22 12:21:31;;;;;;;0.50;0.50;;;;;;;27.27;29.15;100713.13;4971901;28;20046;-48
2022/09/22 12:24:01;;;;;;;1.02;0.40;;;;;;;27.55;28.36;100711.75;4972782;28;20129;-49
2022/09/22 12:26:32;;;;;;;0.95;0.70;;;;;;;27.64;28.51;100703.78;4971967;28;20121;-52
2022/09/22 12:29:00;;;;;;;0.95;0.60;;;;;;;27.13;28.48;100704.66;4972406;28;20038;-49
2022/09/22 12:31:39;;;;;;;1.35;0.50;;;;;;;26.97;28.29;100705.69;4971652;28;20043;-49
2022/09/22 12:34:16;;;;;;;0.50;0.47;;;;;;;26.93;28.72;100707.28;4972313;28;20128;-48
2022/09/22 12:36:42;;;;;;;0.50;0.40;;;;;;;27.07;29.17;100703.00;4972118;28;20086;-52
2022/09/22 12:39:10;;;;;;;0.90;0.57;;;;;;;26.78;28.99;100700.72;4972331;28;20046;-51
2022/09/22 12:41:46;;;;;;;0.98;0.70;;;;;;;26.68;28.43;100700.72;4970219;28;20066;-53
2022/09/22 12:44:16;;;;;;;0.80;0.63;;;;;;;27.29;27.75;100692.59;4972459;28;20039;-48
2022/09/22 12:46:42;;;;;;;0.60;0.47;;;;;;;27.22;27.77;100688.50;4972373;28;20038;-49
2022/09/22 12:49:12;;;;;;;1.50;0.63;;;;;;;26.96;28.17;100695.84;4971507;28;20038;-49
2022/09/22 12:51:37;;;;;;;0.50;0.40;;;;;;;26.20;28.31;100685.47;4971161;28;20043;-50
2022/09/22 12:54:35;;;;;;;0.60;0.50;;;;;;;26.64;28.61;100685.94;4972498;28;20085;-51
2022/09/22 12:57:19;;;;;;;0.90;0.55;;;;;;;27.11;28.88;100682.22;4972430;28;20419;-47
2022/09/22 12:59:54;;;;;;;0.50;0.50;;;;;;;26.15;29.29;100675.38;4987349;28;20035;-51
2022/09/22 13:02:30;;;;;;;0.70;0.50;;;;;;;26.99;28.02;100670.69;4972038;28;20049;-54
2022/09/22 13:04:59;;;;;;;0.88;0.68;;;;;;;27.52;27.27;100679.50;4972477;28;20097;-52
2022/09/22 13:07:42;;;;;;;0.63;0.43;;;;;;;27.17;28.52;100675.66;4972061;28;20110;-50
2022/09/22 13:10:26;;;;;;;0.55;0.47;;;;;;;27.06;28.95;100665.81;4972051;28;20039;-53
2022/09/22 13:13:09;;;;;;;0.43;0.20;;;;;;;26.81;28.11;100666.59;4972216;28;20117;-50
2022/09/22 13:15:44;;;;;;;0.40;0.40;;;;;;;27.06;28.26;100665.81;4972000;28;20038;-49
2022/09/22 13:18:29;;;;;;;0.85;0.60;;;;;;;27.63;27.76;100664.66;4972055;28;20486;-50
2022/09/22 13:20:56;;;;;;;0.57;0.40;;;;;;;28.05;26.56;100663.50;4972026;28;20093;-51
2022/09/22 13:23:22;;;;;;;;;;;;;;;27.30;26.74;100657.88;4972889;28;20035;-51
2022/09/22 13:25:50;;;;;;;0.50;0.50;;;;;;;27.70;26.76;100656.22;4972344;28;19929;-53
2022/09/22 13:28:18;;;;;;;1.15;0.50;;;;;;;28.23;26.41;100660.13;4971952;28;20041;-53
2022/09/22 13:30:47;;;;;;;0.38;0.38;;;;;;;27.49;27.15;100655.41;4972024;28;20043;-51
2022/09/22 13:33:21;;;;;;;0.68;0.57;;;;;;;27.96;27.08;100659.69;4972011;28;20129;-51
2022/09/22 13:36:01;;;;;;;0.60;0.40;;;;;;;28.24;26.50;100660.97;4971849;28;20038;-51
2022/09/22 13:38:28;;;;;;;0.30;0.30;;;;;;;27.50;26.40;100648.81;4973878;28;20050;-63
2022/09/22 13:40:53;;;;;;;0.80;0.50;;;;;;;27.01;26.78;100652.13;4975137;28;20293;-63
2022/09/22 13:43:29;;;;;;;0.60;0.40;;;;;;;27.65;26.37;100648.81;4975497;28;20066;-63
2022/09/22 13:45:57;;;;;;;0.50;0.50;;;;;;;27.52;26.58;100639.28;4975298;28;20038;-63
2022/09/22 13:48:23;;;;;;;0.55;0.32;;;;;;;27.77;26.43;100638.41;4975399;28;20047;-63
2022/09/22 13:50:53;;;;;;;0.30;0.20;;;;;;;27.50;26.54;100637.88;4975215;28;20038;-62
2022/09/22 13:53:20;;;;;;;0.38;0.25;;;;;;;26.28;28.23;100637.72;4990436;28;20046;-62
2022/09/22 13:55:51;;;;;;;1.40;0.60;;;;;;;26.51;27.88;100624.44;4975176;28;20034;-63
2022/09/22 13:58:41;;;;;;;0.50;0.30;;;;;;;26.74;27.25;100630.50;4975170;28;20289;-63
2022/09/22 14:01:22;;;;;;;0.55;0.55;;;;;;;26.38;28.08;100630.38;4967445;28;20050;-63
2022/09/22 14:03:49;;;;;;;0.70;0.40;;;;;;;25.55;28.98;100632.13;4975016;28;20054;-63
2022/09/22 14:06:21;;;;;;;0.45;0.45;;;;;;;24.86;29.10;100624.78;4974893;28;20043;-59
2022/09/22 14:08:48;;;;;;;1.27;0.63;;;;;;;24.36;30.73;100621.28;4974932;28;20162;-57
2022/09/22 14:11:35;;;;;;;0.60;0.47;;;;;;;24.01;30.76;100615.41;4974539;28;20046;-55
2022/09/22 14:14:02;;;;;;;0.70;0.40;;;;;;;23.59;31.17;100615.88;4975113;28;20434;-56
2022/09/22 14:16:41;;;;;;;0.30;0.30;;;;;;;22.04;33.79;100614.47;4974610;28;20042;-58
2022/09/22 14:19:12;;;;;;;0.45;0.40;;;;;;;21.74;34.73;100615.47;4973592;28;20039;-55
2022/09/22 14:21:58;;;;;;;0.30;0.22;;;;;;;21.85;35.92;100619.25;4974347;28;20042;-57
2022/09/22 14:24:25;;;;;;;0.40;0.40;;;;;;;21.71;34.58;100618.66;4974783;28;20046;-62
2022/09/22 14:26:59;;;;;;;0.50;0.50;;;;;;;21.32;34.69;100612.91;4974640;28;20171;-60
2022/09/22 14:29:29;;;;;;;0.30;0.30;;;;;;;20.97;35.71;100599.28;4974738;28;20034;-62
2022/09/22 14:32:01;;;;;;;0.35;0.30;;;;;;;21.08;35.35;100603.06;4974258;28;20037;-62
2022/09/22 14:34:30;;;;;;;0.80;0.57;;;;;;;21.10;35.91;100603.66;4974545;28;20402;-62
2022/09/22 14:36:57;;;;;;;0.38;0.28;;;;;;;21.02;35.79;100593.19;4974295;28;20046;-61
2022/09/22 14:39:29;;;;;;;0.57;0.40;;;;;;;20.68;35.67;100592.06;4974495;28;20039;-61
2022/09/22 14:41:57;;;;;;;0.60;0.50;;;;;;;20.70;35.96;100590.75;4974159;28;20500;-61
2022/09/22 14:44:44;;;;;;;0.40;0.40;;;;;;;20.64;36.60;100586.25;4974439;28;20042;-61
2022/09/22 14:47:26;;;;;;;0.57;0.50;;;;;;;20.61;36.37;100592.16;4974234;28;20050;-61
2022/09/22 14:50:24;;;;;;;0.40;0.30;;;;;;;20.43;37.59;100582.19;4974041;28;20039;-61
2022/09/22 14:52:54;;;;;;;0.80;0.40;;;;;;;20.32;36.75;100581.06;4951281;28;20043;-60
2022/09/22 14:55:34;;;;;;;0.52;0.40;;;;;;;20.28;37.48;100579.06;4973959;28;20064;-61
2022/09/22 14:58:04;;;;;;;0.45;0.43;;;;;;;20.22;36.53;100574.56;4974127;28;20043;-62
2022/09/22 15:03:21;;;;;;;0.30;0.30;;;;;;;19.99;36.94;100570.69;4973297;28;20502;-61
2022/09/22 15:05:49;;;;;;;0.50;0.32;;;;;;;19.97;36.89;100572.78;4973687;28;20086;-60
2022/09/22 15:08:21;;;;;;;0.40;0.40;;;;;;;19.97;38.17;100570.09;4974051;28;20498;-63
2022/09/22 15:10:57;;;;;;;0.40;0.38;;;;;;;19.71;37.92;100567.72;4973647;28;20058;-63
2022/09/22 15:13:25;;;;;;;0.30;0.30;;;;;;;19.77;38.31;100570.34;4973836;28;20092;-63
2022/09/22 15:15:51;;;;;;;0.60;0.50;;;;;;;19.68;37.71;100566.25;4973563;28;20055;-62
2022/09/22 15:18:18;;;;;;;0.75;0.50;;;;;;;19.67;37.92;100572.72;4972418;28;20035;-63
2022/09/22 15:20:49;;;;;;;0.30;0.30;;;;;;;19.66;38.99;100568.38;4973288;28;20043;-62
2022/09/22 15:23:17;;;;;;;1.33;0.60;;;;;;;19.63;38.29;100563.44;4973761;28;20030;-61
2022/09/22 15:25:43;;;;;;;0.50;0.30;;;;;;;19.65;38.38;100564.03;4973582;28;20054;-63
2022/09/22 15:28:18;;;;;;;0.67;0.53;;;;;;;19.44;38.48;100561.75;4973535;28;20378;-58
2022/09/22 15:30:46;;;;;;;0.35;0.35;;;;;;;19.45;38.15;100556.09;4973312;28;20286;-60
2022/09/22 15:33:14;;;;;;;0.50;0.50;;;;;;;19.40;38.56;100555.13;4973581;28;20035;-58
2022/09/22 15:35:43;;;;;;;0.73;0.43;;;;;;;19.43;37.99;100560.06;4973413;28;20367;-59
2022/09/22 15:38:18;;;;;;;0.30;0.30;;;;;;;19.32;37.94;100555.41;4973362;28;20170;-60
2022/09/22 15:40:45;;;;;;;0.30;0.30;;;;;;;19.10;38.39;100553.09;4973033;28;20054;-58
2022/09/22 15:43:12;;;;;;;0.40;0.40;;;;;;;19.19;38.75;100549.09;4973302;28;20470;-61
2022/09/22 15:45:46;;;;;;;0.65;0.40;;;;;;;19.17;38.75;100544.94;4973128;28;20434;-58
2022/09/22 15:48:22;;;;;;;2.30;0.50;;;;;;;19.14;38.70;100550.81;4973188;28;20486;-60
2022/09/22 15:50:48;;;;;;;0.40;0.40;;;;;;;18.77;39.18;100536.38;4972867;28;20043;-60
2022/09/22 15:53:14;;;;;;;0.30;0.30;;;;;;;18.92;38.83;100534.19;4973070;28;20109;-61
2022/09/22 15:55:39;;;;;;;0.70;0.60;;;;;;;18.92;39.34;100537.72;4972984;28;20043;-59
2022/09/22 15:58:11;;;;;;;0.55;0.40;;;;;;;18.88;39.63;100544.59;4973266;28;20057;-63
2022/09/22 16:00:36;;;;;;;0.40;0.40;;;;;;;18.75;39.71;100541.19;4972154;28;20038;-62
2022/09/22 16:03:12;;;;;;;0.38;0.38;;;;;;;18.76;39.88;100540.13;4972950;28;20039;-61
2022/09/22 16:05:39;;;;;;;0.40;0.40;;;;;;;18.75;39.82;100541.19;4972585;28;20034;-62
2022/09/22 16:08:05;;;;;;;0.30;0.22;;;;;;;18.71;39.85;100540.78;4972897;28;20045;-63
2022/09/22 16:10:31;;;;;;;0.40;0.40;;;;;;;18.70;39.82;100539.94;4972628;28;20413;-60
2022/09/22 16:12:58;;;;;;;2.65;0.55;;;;;;;18.65;40.45;100531.69;4972750;28;20058;-61
2022/09/22 16:15:23;;;;;;;0.57;0.50;;;;;;;18.61;40.46;100541.25;4972610;28;20043;-63
2022/09/22 16:17:49;;;;;;;0.50;0.50;;;;;;;18.63;40.23;100533.75;4972741;28;20039;-62
2022/09/22 16:20:15;;;;;;;0.30;0.30;;;;;;;18.58;40.42;100541.69;4972493;28;20037;-61
2022/09/22 16:22:42;;;;;;;0.70;0.43;;;;;;;18.52;41.00;100533.63;4972741;28;20678;-62